Manchester, TN (37349)

1:28 PM CST on February 14, 2016 (GMT -0600)
Quiet neighborhood in Manchester | | Change Station
CLOSE
Current Station
Personal Weather Station
Location: Manchester, TN
Elevation: 1093 ft
Nearby Weather Stations

Elev 1093 ft 35.45 °N, 86.09 °W | Updated 21 seconds ago

Overcast
Overcast
31.4 °F
Feels Like 31 °F
N
1.6
Wind Variable Wind from SW
Gusts 6.0 mph

Today
High -- | Low -- °F
--% Chance of Precip.
Yesterday
High -- | Low -- °F
Precip. -- in
Pressure 30.15 in
Visibility 10.0 miles
Clouds Overcast 4600 ft
Windchill 31 °F
Dew Point 7 °F
Humidity 35%
Rainfall 0.00 in
Snow Depth Not available.
6:32 AM 5:25 PM
Waxing Crescent, 44% visible
METAR KTHA 141915Z AUTO 11005KT 10SM OVC046 01/M14 A3015 RMK
Pressure 30.15 in
Visibility 10.0 miles
Clouds Overcast 4600 ft
Windchill 31 °F
Dew Point 7 °F
Humidity 35%
Rainfall 0.00 in
Snow Depth Not available.
6:32 AM 5:25 PM
Waxing Crescent, 44% visible
METAR KTHA 141915Z AUTO 11005KT 10SM OVC046 01/M14 A3015 RMK

10-Day Weather Forecast

Almanac

Astronomy

Feb. 14, 2016 Rise Set
Actual Time
Civil Twilight
Nautical Twilight
Astronomical Twilight
Moon
Length of Visible Light
Length of Day
Tomorrow will be .
, % of the Moon is Illuminated

Today's Extremes

State Highs State Lows

Community

WunderPhotos

Upload Photos

1,892,875 photos uploaded!

WunderBlog® & News

Nearby

Air Quality

  Air Quality AQ Index Pollutant
Not available.

Snow Depth

Station Depth Elevation

Earthquake Activity

City Distance Mag. Time & Date
Minimum magnitude displayed is 2.5.

Coastal Water Temperatures

Place Temperature

Stations

Nearby Weather Stations

Station Location Temp. Windchill Dew Point Humidity Wind Precip. Elev Updated Type
                   

Watches & Warnings

There are currently no watches in effect.